Dudinka, Russia
Current Conditions -  °F | °C
As of 10:30 PM on Thursday 23 Oct 2014 (Local Time) from USNN Reporting Station
Clear Clear  
Wind Chill: -9°   Ceiling: Unl
Heat Index:   Visibility: 6mi
Dew Point:   Wind: 9mph
Humidity: 85%   Direction: 80°E
Pressure: 29.97"   Gusts: NA
Location:  69.41°N, 86.18°E
Report Text: USNN 231530Z 08004MPS CAVOK M15/M17 Q1015 NOSIG RMK QFE75803410165
Loading
Personal Weather Stations






























Interactive Weather Map New forecast layout! Learn more

10-Day Weather Forecast

Advertisements
Track Severe Weather on mobile